Latest Coastal Weather Observations for Darwin Harbour

IDD60701

Issued at 5:51 pm CST Friday 29 May 2015 (issued every 10 minutes, with the page automatically refreshed every 10 minutes)

About coastal observations | Map of coastal stations | Coastal observations for NT | Marine services | Other Formats
Station Details ID: 014072 Name: DARWIN NTC AWS Lat: -12.47 Lon: 130.85 Height: 0.0 m
Data from the previous 72 hours. | See also: Recent months for locations in Northern Territory
Date/Time
CST
Temp

°C
Wind Pressure Rain
since 9am
mm
Weather Cloud Vis
km
Sea
Height
m
Swell
Dir
 
Speed
knots
Gust
knots
hPa Trend Height
m
Period
s
Dir
29/05:30pm 30.0 ENE 6 9 1010.7 - - - - - - - - -
29/05:00pm 30.3 ENE 9 12 1010.2 - - - - - - - - -
29/04:30pm 30.9 ENE 10 15 1010.2 - - - - - - - - -
29/04:00pm 30.5 ENE 11 16 1010.2 - - - - - - - - -
29/03:30pm 31.1 ENE 10 15 1010.1 - - - - - - - - -
29/03:00pm 31.0 ENE 13 17 1010.4 - - - - - - - - -
29/02:30pm 31.1 ENE 13 20 1010.5 - - - - - - - - -
29/02:00pm 31.5 E 13 19 1010.7 - - - - - - - - -
29/01:30pm 31.0 E 11 15 1010.9 - - - - - - - - -
29/01:00pm 31.0 E 12 17 1011.4 - - - - - - - - -
29/12:30pm 30.3 E 14 18 1011.9 - - - - - - - - -
29/12:00pm 30.1 E 15 19 1012.5 - - - - - - - - -
29/11:30am 29.7 E 12 17 1013.1 - - - - - - - - -
29/11:00am 29.3 E 13 19 1013.7 - - - - - - - - -
29/10:30am 27.0 ESE 6 8 1014.1 - - - - - - - - -
29/10:00am 26.4 ESE 8 9 1014.4 - - - - - - - - -
29/09:30am 26.0 E 6 8 1014.2 - - - - - - - - -
29/09:00am 26.0 E 7 9 1014.0 - - - - - - - - -
29/08:30am 25.1 ESE 7 8 1013.6 - - - - - - - - -
29/08:00am 24.8 SE 4 7 1013.3 - - - - - - - - -
29/07:30am 24.9 SE 3 6 1013.0 - - - - - - - - -
29/07:00am 25.0 SSE 2 4 1012.8 - - - - - - - - -
29/06:30am 24.9 SE 1 3 1012.7 - - - - - - - - -
29/06:00am 24.6 SE 1 2 1012.5 - - - - - - - - -
29/05:30am 24.7 ESE 5 7 1012.5 - - - - - - - - -
29/05:00am 25.1 SSE 5 8 1012.1 - - - - - - - - -
29/04:30am 25.1 SSW 4 5 1011.9 - - - - - - - - -
29/04:00am 25.0 SW 6 7 1011.6 - - - - - - - - -
29/03:30am 25.1 SSW 6 7 1011.7 - - - - - - - - -
29/03:00am 25.1 SSW 6 7 1011.7 - - - - - - - - -
29/02:30am 25.1 SSW 7 8 1012.0 - - - - - - - - -
29/02:00am 25.2 SSW 7 8 1012.4 - - - - - - - - -
29/01:30am 25.5 S 5 6 1012.6 - - - - - - - - -
29/01:00am 25.6 S 5 6 1012.5 - - - - - - - - -
29/12:30am 25.7 SSW 7 9 1012.6 - - - - - - - - -
29/12:00am 25.8 SSW 6 7 1012.6 - - - - - - - - -
 
Date/Time
CST
Temp

°C
Wind Pressure Rain
since 9am
mm
Weather Cloud Vis
km
Sea
Height
m
Swell
Dir
 
Speed
knots
Gust
knots
hPa Trend Height
m
Period
s
Dir
28/11:30pm 25.8 SW 6 8 1012.6 - - - - - - - - -
28/11:00pm 26.0 SW 7 8 1012.6 - - - - - - - - -
28/10:30pm 26.4 SSW 6 7 1012.7 - - - - - - - - -
28/10:00pm 26.3 SSW 6 8 1012.7 - - - - - - - - -
28/09:30pm 27.3 S 2 3 1012.4 - - - - - - - - -
28/09:00pm 27.4 CALM 0 1 1012.1 - - - - - - - - -
28/08:30pm 27.5 NE 2 4 1011.9 - - - - - - - - -
28/08:00pm 27.7 NE 4 9 1011.5 - - - - - - - - -
28/07:30pm 28.3 NE 4 8 1011.3 - - - - - - - - -
28/07:00pm 28.5 NE 4 7 1011.0 - - - - - - - - -
28/06:30pm 29.2 NE 5 8 1010.7 - - - - - - - - -
28/06:00pm 29.8 NE 5 8 1010.3 - - - - - - - - -
28/05:30pm 30.4 ENE 6 11 1010.0 - - - - - - - - -
28/05:00pm 30.7 N 5 9 1009.8 - - - - - - - - -
28/04:30pm 30.5 NW 4 7 1009.6 - - - - - - - - -
28/04:00pm 30.8 WNW 4 6 1009.6 - - - - - - - - -
28/03:30pm 30.6 ESE 2 5 1009.8 - - - - - - - - -
28/03:00pm 31.0 E 6 7 1010.0 - - - - - - - - -
28/02:30pm 30.9 E 10 12 1010.3 - - - - - - - - -
28/02:00pm 30.6 ESE 8 10 1010.7 - - - - - - - - -
28/01:30pm 30.3 ESE 10 11 1011.2 - - - - - - - - -
28/01:00pm 29.8 SE 5 10 1011.8 - - - - - - - - -
28/12:30pm 29.4 SE 4 8 1012.4 - - - - - - - - -
28/12:00pm 28.7 ESE 7 9 1012.8 - - - - - - - - -
28/11:30am 28.8 E 8 11 1013.3 - - - - - - - - -
28/11:00am 28.5 E 8 12 1013.5 - - - - - - - - -
28/10:30am 28.4 E 9 13 1013.5 - - - - - - - - -
28/10:00am 26.4 ESE 4 5 1013.7 - - - - - - - - -
28/09:30am 26.2 E 6 7 1013.6 - - - - - - - - -
28/09:00am 25.9 E 3 6 1013.5 - - - - - - - - -
28/08:30am 25.7 ENE 3 5 1013.2 - - - - - - - - -
28/08:00am 25.1 E 5 7 1013.0 - - - - - - - - -
28/07:30am 25.1 SE 2 4 1012.6 - - - - - - - - -
28/07:00am 24.9 SE 4 5 1012.3 - - - - - - - - -
28/06:30am 24.8 ESE 3 5 1012.1 - - - - - - - - -
28/06:00am 24.9 SE 4 5 1011.8 - - - - - - - - -
28/05:30am 24.9 ESE 5 7 1011.6 - - - - - - - - -
28/05:00am 25.3 ESE 5 6 1011.4 - - - - - - - - -
28/04:30am 25.6 SE 3 4 1011.2 - - - - - - - - -
28/04:00am 25.7 S 3 4 1011.1 - - - - - - - - -
28/03:30am 25.7 SW 4 5 1011.1 - - - - - - - - -
28/03:00am 26.2 SSW 6 7 1011.3 - - - - - - - - -
28/02:30am 26.1 S 6 7 1011.5 - - - - - - - - -
28/02:00am 26.4 SSE 3 4 1011.7 - - - - - - - - -
28/01:30am 26.6 SE 3 4 1011.9 - - - - - - - - -
28/01:00am 26.8 S 5 6 1012.2 - - - - - - - - -
28/12:30am 26.6 SSW 6 7 1012.3 - - - - - - - - -
28/12:00am 26.9 SSW 4 5 1012.4 - - - - - - - - -
 
Date/Time
CST
Temp

°C
Wind Pressure Rain
since 9am
mm
Weather Cloud Vis
km
Sea
Height
m
Swell
Dir
 
Speed
knots
Gust
knots
hPa Trend Height
m
Period
s
Dir
27/11:30pm 27.4 ESE 1 2 1012.5 - - - - - - - - -
27/11:00pm 27.3 S 2 3 1012.4 - - - - - - - - -
27/10:30pm 27.1 SE 1 2 1012.3 - - - - - - - - -
27/10:00pm 27.3 ENE 2 5 1012.2 - - - - - - - - -
27/09:30pm 27.5 NE 4 7 1012.0 - - - - - - - - -
27/09:00pm 27.7 NE 4 9 1011.8 - - - - - - - - -
27/08:30pm 28.1 NE 5 11 1011.7 - - - - - - - - -
27/08:00pm 28.1 NE 6 11 1011.4 - - - - - - - - -
27/07:30pm 28.8 NE 6 11 1011.0 - - - - - - - - -
27/07:00pm 29.3 NE 6 12 1010.5 - - - - - - - - -
27/06:30pm 29.6 NE 7 13 1010.1 - - - - - - - - -
27/06:00pm 30.3 NE 8 14 1009.8 - - - - - - - - -
27/05:30pm 30.8 NE 8 14 1009.6 - - - - - - - - -
27/05:00pm 30.9 NE 8 16 1009.4 - - - - - - - - -
27/04:30pm 31.3 NE 9 17 1009.3 - - - - - - - - -
27/04:00pm 32.1 E 9 13 1009.5 - - - - - - - - -
27/03:30pm 32.0 ENE 6 10 1009.6 - - - - - - - - -
27/03:00pm 31.9 E 8 13 1009.8 - - - - - - - - -
27/02:30pm 31.4 E 10 13 1010.0 - - - - - - - - -
27/02:00pm 31.1 E 11 14 1010.3 - - - - - - - - -
27/01:30pm 30.9 E 12 16 1010.9 - - - - - - - - -
27/01:00pm 31.0 E 12 16 1011.7 - - - - - - - - -
27/12:30pm 29.8 E 9 13 1012.2 - - - - - - - - -
27/12:00pm 29.9 E 14 21 1012.5 - - - - - - - - -
27/11:30am 29.7 E 15 20 1013.0 - - - - - - - - -
27/11:00am 29.3 E 11 15 1013.5 - - - - - - - - -
27/10:30am 28.7 E 12 16 1013.8 - - - - - - - - -
27/10:00am 28.5 ESE 6 13 1014.0 - - - - - - - - -
27/09:30am 26.6 E 4 6 1014.1 - - - - - - - - -
27/09:00am 26.3 E 7 8 1013.9 - - - - - - - - -
27/08:30am 26.0 E 6 8 1013.8 - - - - - - - - -
27/08:00am 25.6 ENE 3 6 1013.3 - - - - - - - - -
27/07:30am 25.5 E 5 7 1013.0 - - - - - - - - -
27/07:00am 25.2 E 4 5 1012.5 - - - - - - - - -
27/06:30am 25.3 SE 2 3 1012.3 - - - - - - - - -
27/06:00am 25.4 SSW 3 4 1012.2 - - - - - - - - -
27/05:30am 25.5 SSE 3 4 1012.0 - - - - - - - - -
27/05:00am 25.6 SE 3 4 1012.0 - - - - - - - - -
27/04:30am 25.7 SE 2 3 1012.1 - - - - - - - - -
27/04:00am 25.8 SE 2 3 1012.0 - - - - - - - - -
27/03:30am 25.8 SSE 3 4 1012.3 - - - - - - - - -
27/03:00am 25.9 SE 3 4 1012.7 - - - - - - - - -
27/02:30am 26.0 ESE 3 4 1013.1 - - - - - - - - -
27/02:00am 26.2 E 2 3 1013.4 - - - - - - - - -
27/01:30am 26.4 S 5 5 1013.5 - - - - - - - - -
27/01:00am 26.4 SSE 2 3 1013.8 - - - - - - - - -
27/12:30am 26.6 SE 4 5 1014.0 - - - - - - - - -
27/12:00am 26.7 ESE 5 7 1014.2 - - - - - - - - -
 
Date/Time
CST
Temp

°C
Wind Pressure Rain
since 9am
mm
Weather Cloud Vis
km
Sea
Height
m
Swell
Dir
 
Speed
knots
Gust
knots
hPa Trend Height
m
Period
s
Dir
26/11:30pm 27.1 ESE 3 4 1014.3 - - - - - - - - -
26/11:00pm 27.2 S 1 2 1014.2 - - - - - - - - -
26/10:30pm 27.2 SSW 3 4 1014.2 - - - - - - - - -
26/10:00pm 27.2 SSW 4 5 1014.1 - - - - - - - - -
26/09:30pm 27.1 SSW 4 7 1013.9 - - - - - - - - -
26/09:00pm 28.1 WSW 1 1 1013.7 - - - - - - - - -
26/08:30pm 28.1 W 2 3 1013.5 - - - - - - - - -
26/08:00pm 29.0 NNE 1 4 1013.0 - - - - - - - - -
26/07:30pm 29.1 NNE 3 6 1012.7 - - - - - - - - -
26/07:00pm 29.5 N 2 7 1012.3 - - - - - - - - -
26/06:30pm 29.8 NNE 5 10 1011.8 - - - - - - - - -
26/06:00pm 29.4 N 5 8 1011.5 - - - - - - - - -

Other Formats:

Comma delimited format used in spreadsheet applications
http://www.bom.gov.au/fwo/IDD60701/IDD60701.95122.axf

JavaScript Object Notation format (JSON) in row-major order
http://www.bom.gov.au/fwo/IDD60701/IDD60701.95122.json